sensor_id;sensor_type;location;lat;lon;timestamp;P1;durP1;ratioP1;P2;durP2;ratioP2
10333;SDS011;5212;47.892;16.406;2023-06-14T00:02:12;4.53;;;4.13;;
10333;SDS011;5212;47.892;16.406;2023-06-14T00:04:39;5.80;;;4.53;;
10333;SDS011;5212;47.892;16.406;2023-06-14T00:07:06;5.67;;;4.60;;
10333;SDS011;5212;47.892;16.406;2023-06-14T00:09:34;4.33;;;3.93;;
10333;SDS011;5212;47.892;16.406;2023-06-14T00:12:00;5.20;;;4.27;;
10333;SDS011;5212;47.892;16.406;2023-06-14T00:14:26;7.77;;;5.33;;
10333;SDS011;5212;47.892;16.406;2023-06-14T00:16:52;5.50;;;4.70;;
10333;SDS011;5212;47.892;16.406;2023-06-14T00:19:23;5.43;;;4.93;;
10333;SDS011;5212;47.892;16.406;2023-06-14T00:21:49;5.00;;;4.40;;
10333;SDS011;5212;47.892;16.406;2023-06-14T00:24:17;5.17;;;4.67;;
10333;SDS011;5212;47.892;16.406;2023-06-14T00:26:43;5.47;;;4.87;;
10333;SDS011;5212;47.892;16.406;2023-06-14T00:29:09;5.87;;;4.90;;
10333;SDS011;5212;47.892;16.406;2023-06-14T00:31:35;5.63;;;5.13;;
10333;SDS011;5212;47.892;16.406;2023-06-14T00:34:01;6.37;;;5.30;;
10333;SDS011;5212;47.892;16.406;2023-06-14T00:36:27;5.10;;;4.60;;
10333;SDS011;5212;47.892;16.406;2023-06-14T00:38:53;6.37;;;5.77;;
10333;SDS011;5212;47.892;16.406;2023-06-14T00:41:19;5.60;;;5.10;;
10333;SDS011;5212;47.892;16.406;2023-06-14T00:43:46;5.63;;;5.00;;
10333;SDS011;5212;47.892;16.406;2023-06-14T00:46:12;5.67;;;5.03;;
10333;SDS011;5212;47.892;16.406;2023-06-14T00:48:38;6.17;;;5.07;;
10333;SDS011;5212;47.892;16.406;2023-06-14T00:51:05;5.50;;;4.90;;
10333;SDS011;5212;47.892;16.406;2023-06-14T00:53:32;5.40;;;4.90;;
10333;SDS011;5212;47.892;16.406;2023-06-14T00:55:59;6.27;;;5.67;;
10333;SDS011;5212;47.892;16.406;2023-06-14T00:58:26;6.53;;;5.70;;
10333;SDS011;5212;47.892;16.406;2023-06-14T01:00:52;7.57;;;5.97;;
10333;SDS011;5212;47.892;16.406;2023-06-14T01:03:19;5.80;;;5.20;;
10333;SDS011;5212;47.892;16.406;2023-06-14T01:05:47;7.77;;;6.40;;
10333;SDS011;5212;47.892;16.406;2023-06-14T01:08:15;7.73;;;5.83;;
10333;SDS011;5212;47.892;16.406;2023-06-14T01:10:47;7.53;;;6.60;;
10333;SDS011;5212;47.892;16.406;2023-06-14T01:13:19;7.50;;;5.90;;
10333;SDS011;5212;47.892;16.406;2023-06-14T01:15:46;6.67;;;6.07;;
10333;SDS011;5212;47.892;16.406;2023-06-14T01:18:13;6.03;;;5.50;;
10333;SDS011;5212;47.892;16.406;2023-06-14T01:20:42;6.33;;;5.73;;
10333;SDS011;5212;47.892;16.406;2023-06-14T01:23:10;6.73;;;5.83;;
10333;SDS011;5212;47.892;16.406;2023-06-14T01:25:37;7.17;;;6.27;;
10333;SDS011;5212;47.892;16.406;2023-06-14T01:28:04;11.93;;;6.93;;
10333;SDS011;5212;47.892;16.406;2023-06-14T01:30:35;6.90;;;6.17;;
10333;SDS011;5212;47.892;16.406;2023-06-14T01:33:02;7.43;;;6.17;;
10333;SDS011;5212;47.892;16.406;2023-06-14T01:35:29;8.20;;;6.67;;
10333;SDS011;5212;47.892;16.406;2023-06-14T01:37:55;6.80;;;6.10;;
10333;SDS011;5212;47.892;16.406;2023-06-14T01:40:22;6.57;;;5.90;;
10333;SDS011;5212;47.892;16.406;2023-06-14T01:42:49;6.53;;;5.83;;
10333;SDS011;5212;47.892;16.406;2023-06-14T01:45:16;6.50;;;5.80;;
10333;SDS011;5212;47.892;16.406;2023-06-14T01:47:43;5.97;;;5.47;;
10333;SDS011;5212;47.892;16.406;2023-06-14T01:50:09;6.10;;;5.50;;
10333;SDS011;5212;47.892;16.406;2023-06-14T01:52:36;6.70;;;6.00;;
10333;SDS011;5212;47.892;16.406;2023-06-14T01:55:02;6.67;;;6.07;;
10333;SDS011;5212;47.892;16.406;2023-06-14T01:57:30;6.63;;;5.97;;
10333;SDS011;5212;47.892;16.406;2023-06-14T01:59:56;7.40;;;5.70;;
10333;SDS011;5212;47.892;16.406;2023-06-14T02:02:22;6.43;;;5.83;;
10333;SDS011;5212;47.892;16.406;2023-06-14T02:04:48;6.80;;;6.20;;
10333;SDS011;5212;47.892;16.406;2023-06-14T02:07:14;6.77;;;5.70;;
10333;SDS011;5212;47.892;16.406;2023-06-14T02:09:40;6.10;;;5.50;;
10333;SDS011;5212;47.892;16.406;2023-06-14T02:12:07;6.23;;;5.63;;
10333;SDS011;5212;47.892;16.406;2023-06-14T02:14:34;6.20;;;5.60;;
10333;SDS011;5212;47.892;16.406;2023-06-14T02:17:00;7.07;;;5.50;;
10333;SDS011;5212;47.892;16.406;2023-06-14T02:19:26;6.37;;;5.77;;
10333;SDS011;5212;47.892;16.406;2023-06-14T02:21:53;6.27;;;5.67;;
10333;SDS011;5212;47.892;16.406;2023-06-14T02:24:19;5.77;;;5.23;;
10333;SDS011;5212;47.892;16.406;2023-06-14T02:26:45;6.80;;;5.97;;
10333;SDS011;5212;47.892;16.406;2023-06-14T02:29:11;7.53;;;6.63;;
10333;SDS011;5212;47.892;16.406;2023-06-14T02:31:40;7.37;;;6.00;;
10333;SDS011;5212;47.892;16.406;2023-06-14T02:34:06;6.20;;;5.53;;
10333;SDS011;5212;47.892;16.406;2023-06-14T02:36:33;7.57;;;5.70;;
10333;SDS011;5212;47.892;16.406;2023-06-14T02:39:00;7.43;;;5.57;;
10333;SDS011;5212;47.892;16.406;2023-06-14T02:41:26;6.03;;;5.40;;
10333;SDS011;5212;47.892;16.406;2023-06-14T02:43:52;6.60;;;5.93;;
10333;SDS011;5212;47.892;16.406;2023-06-14T02:46:18;6.70;;;5.90;;
10333;SDS011;5212;47.892;16.406;2023-06-14T02:48:45;6.17;;;5.20;;
10333;SDS011;5212;47.892;16.406;2023-06-14T02:51:11;6.03;;;5.43;;
10333;SDS011;5212;47.892;16.406;2023-06-14T02:53:37;5.80;;;5.20;;
10333;SDS011;5212;47.892;16.406;2023-06-14T02:56:04;5.63;;;5.13;;
10333;SDS011;5212;47.892;16.406;2023-06-14T02:58:30;6.60;;;5.67;;
10333;SDS011;5212;47.892;16.406;2023-06-14T03:00:56;6.23;;;5.63;;
10333;SDS011;5212;47.892;16.406;2023-06-14T03:03:22;6.30;;;5.30;;
10333;SDS011;5212;47.892;16.406;2023-06-14T03:05:50;5.93;;;5.27;;
10333;SDS011;5212;47.892;16.406;2023-06-14T03:08:16;6.80;;;5.53;;
10333;SDS011;5212;47.892;16.406;2023-06-14T03:10:44;6.00;;;5.40;;
10333;SDS011;5212;47.892;16.406;2023-06-14T03:13:11;6.20;;;5.60;;
10333;SDS011;5212;47.892;16.406;2023-06-14T03:15:37;6.60;;;6.00;;
10333;SDS011;5212;47.892;16.406;2023-06-14T03:18:03;9.60;;;6.00;;
10333;SDS011;5212;47.892;16.406;2023-06-14T03:20:30;7.73;;;6.37;;
10333;SDS011;5212;47.892;16.406;2023-06-14T03:22:58;7.17;;;6.20;;
10333;SDS011;5212;47.892;16.406;2023-06-14T03:25:25;6.37;;;5.77;;
10333;SDS011;5212;47.892;16.406;2023-06-14T03:27:54;7.77;;;6.97;;
10333;SDS011;5212;47.892;16.406;2023-06-14T03:30:20;6.90;;;6.20;;
10333;SDS011;5212;47.892;16.406;2023-06-14T03:32:46;6.60;;;6.00;;
10333;SDS011;5212;47.892;16.406;2023-06-14T03:35:12;6.77;;;6.07;;
10333;SDS011;5212;47.892;16.406;2023-06-14T03:37:42;6.50;;;5.90;;
10333;SDS011;5212;47.892;16.406;2023-06-14T03:40:09;7.27;;;5.90;;
10333;SDS011;5212;47.892;16.406;2023-06-14T03:42:37;8.33;;;6.90;;
10333;SDS011;5212;47.892;16.406;2023-06-14T03:45:03;7.13;;;6.40;;
10333;SDS011;5212;47.892;16.406;2023-06-14T03:47:30;6.60;;;6.00;;
10333;SDS011;5212;47.892;16.406;2023-06-14T03:49:56;6.57;;;5.87;;
10333;SDS011;5212;47.892;16.406;2023-06-14T03:52:22;7.37;;;5.80;;
10333;SDS011;5212;47.892;16.406;2023-06-14T03:54:48;7.87;;;6.17;;
10333;SDS011;5212;47.892;16.406;2023-06-14T03:57:15;7.20;;;5.73;;
10333;SDS011;5212;47.892;16.406;2023-06-14T03:59:41;6.73;;;5.70;;
10333;SDS011;5212;47.892;16.406;2023-06-14T04:02:07;7.50;;;6.30;;
10333;SDS011;5212;47.892;16.406;2023-06-14T04:04:34;6.77;;;6.17;;
10333;SDS011;5212;47.892;16.406;2023-06-14T04:07:00;7.20;;;6.47;;
10333;SDS011;5212;47.892;16.406;2023-06-14T04:09:28;6.97;;;5.87;;
10333;SDS011;5212;47.892;16.406;2023-06-14T04:11:54;6.63;;;6.03;;
10333;SDS011;5212;47.892;16.406;2023-06-14T04:14:21;6.10;;;5.50;;
10333;SDS011;5212;47.892;16.406;2023-06-14T04:16:48;6.83;;;6.13;;
10333;SDS011;5212;47.892;16.406;2023-06-14T04:19:14;5.90;;;5.30;;
10333;SDS011;5212;47.892;16.406;2023-06-14T04:21:41;6.30;;;5.70;;
10333;SDS011;5212;47.892;16.406;2023-06-14T04:24:07;7.10;;;5.60;;
10333;SDS011;5212;47.892;16.406;2023-06-14T04:26:38;8.17;;;7.00;;
10333;SDS011;5212;47.892;16.406;2023-06-14T04:29:04;9.00;;;6.97;;
10333;SDS011;5212;47.892;16.406;2023-06-14T04:31:32;7.10;;;6.00;;
10333;SDS011;5212;47.892;16.406;2023-06-14T04:33:58;6.43;;;5.73;;
10333;SDS011;5212;47.892;16.406;2023-06-14T04:36:24;6.20;;;5.60;;
10333;SDS011;5212;47.892;16.406;2023-06-14T04:38:53;6.77;;;6.07;;
10333;SDS011;5212;47.892;16.406;2023-06-14T04:41:20;6.70;;;5.90;;
10333;SDS011;5212;47.892;16.406;2023-06-14T04:43:47;8.43;;;7.10;;
10333;SDS011;5212;47.892;16.406;2023-06-14T04:46:14;7.10;;;6.40;;
10333;SDS011;5212;47.892;16.406;2023-06-14T04:48:41;7.70;;;6.90;;
10333;SDS011;5212;47.892;16.406;2023-06-14T04:51:07;7.00;;;6.40;;
10333;SDS011;5212;47.892;16.406;2023-06-14T04:53:34;6.40;;;5.80;;
10333;SDS011;5212;47.892;16.406;2023-06-14T04:56:00;6.30;;;5.70;;
10333;SDS011;5212;47.892;16.406;2023-06-14T04:58:26;7.33;;;6.40;;
10333;SDS011;5212;47.892;16.406;2023-06-14T05:00:52;7.50;;;6.27;;
10333;SDS011;5212;47.892;16.406;2023-06-14T05:03:18;6.70;;;6.00;;
10333;SDS011;5212;47.892;16.406;2023-06-14T05:05:46;7.27;;;5.50;;
10333;SDS011;5212;47.892;16.406;2023-06-14T05:08:12;6.73;;;5.97;;
10333;SDS011;5212;47.892;16.406;2023-06-14T05:10:38;5.90;;;5.13;;
10333;SDS011;5212;47.892;16.406;2023-06-14T05:13:04;7.50;;;6.20;;
10333;SDS011;5212;47.892;16.406;2023-06-14T05:15:31;7.47;;;5.50;;
10333;SDS011;5212;47.892;16.406;2023-06-14T05:17:57;7.17;;;6.47;;
10333;SDS011;5212;47.892;16.406;2023-06-14T05:20:23;9.50;;;7.20;;
10333;SDS011;5212;47.892;16.406;2023-06-14T05:22:50;8.97;;;7.70;;
10333;SDS011;5212;47.892;16.406;2023-06-14T05:25:17;6.53;;;5.87;;
10333;SDS011;5212;47.892;16.406;2023-06-14T05:27:44;6.93;;;6.10;;
10333;SDS011;5212;47.892;16.406;2023-06-14T05:30:10;7.67;;;6.90;;
10333;SDS011;5212;47.892;16.406;2023-06-14T05:32:37;10.30;;;7.70;;
10333;SDS011;5212;47.892;16.406;2023-06-14T05:35:03;9.43;;;7.00;;
10333;SDS011;5212;47.892;16.406;2023-06-14T05:37:30;6.60;;;6.00;;
10333;SDS011;5212;47.892;16.406;2023-06-14T05:39:57;6.40;;;5.80;;
10333;SDS011;5212;47.892;16.406;2023-06-14T05:42:23;5.43;;;4.93;;
10333;SDS011;5212;47.892;16.406;2023-06-14T05:44:49;5.77;;;5.17;;
10333;SDS011;5212;47.892;16.406;2023-06-14T05:47:15;5.40;;;4.90;;
10333;SDS011;5212;47.892;16.406;2023-06-14T05:49:41;5.97;;;5.37;;
10333;SDS011;5212;47.892;16.406;2023-06-14T05:52:08;6.57;;;5.13;;
10333;SDS011;5212;47.892;16.406;2023-06-14T05:54:34;5.17;;;4.67;;
10333;SDS011;5212;47.892;16.406;2023-06-14T05:57:01;5.13;;;4.67;;
10333;SDS011;5212;47.892;16.406;2023-06-14T05:59:28;4.40;;;4.00;;
10333;SDS011;5212;47.892;16.406;2023-06-14T06:01:55;4.37;;;3.97;;
10333;SDS011;5212;47.892;16.406;2023-06-14T06:04:21;5.07;;;4.50;;
10333;SDS011;5212;47.892;16.406;2023-06-14T06:06:48;4.93;;;4.50;;
10333;SDS011;5212;47.892;16.406;2023-06-14T06:09:14;5.90;;;5.30;;
10333;SDS011;5212;47.892;16.406;2023-06-14T06:11:40;8.00;;;5.13;;
10333;SDS011;5212;47.892;16.406;2023-06-14T06:14:07;6.20;;;5.47;;
10333;SDS011;5212;47.892;16.406;2023-06-14T06:16:33;6.87;;;6.13;;
10333;SDS011;5212;47.892;16.406;2023-06-14T06:18:59;7.30;;;6.53;;
10333;SDS011;5212;47.892;16.406;2023-06-14T06:21:25;6.57;;;5.87;;
10333;SDS011;5212;47.892;16.406;2023-06-14T06:23:51;6.00;;;5.40;;
10333;SDS011;5212;47.892;16.406;2023-06-14T06:26:17;5.67;;;5.07;;
10333;SDS011;5212;47.892;16.406;2023-06-14T06:28:43;5.20;;;4.70;;
10333;SDS011;5212;47.892;16.406;2023-06-14T06:31:10;6.83;;;4.70;;
10333;SDS011;5212;47.892;16.406;2023-06-14T06:33:36;5.00;;;4.50;;
10333;SDS011;5212;47.892;16.406;2023-06-14T06:36:02;4.67;;;4.20;;
10333;SDS011;5212;47.892;16.406;2023-06-14T06:38:28;5.30;;;4.77;;
10333;SDS011;5212;47.892;16.406;2023-06-14T06:40:54;4.97;;;4.43;;
10333;SDS011;5212;47.892;16.406;2023-06-14T06:43:21;5.03;;;4.13;;
10333;SDS011;5212;47.892;16.406;2023-06-14T06:45:47;4.23;;;3.77;;
10333;SDS011;5212;47.892;16.406;2023-06-14T06:48:14;5.13;;;4.13;;
10333;SDS011;5212;47.892;16.406;2023-06-14T06:50:41;4.93;;;4.00;;
10333;SDS011;5212;47.892;16.406;2023-06-14T06:53:07;4.63;;;4.23;;
10333;SDS011;5212;47.892;16.406;2023-06-14T06:55:32;4.17;;;3.77;;
10333;SDS011;5212;47.892;16.406;2023-06-14T06:57:59;6.87;;;4.50;;
10333;SDS011;5212;47.892;16.406;2023-06-14T07:00:25;4.37;;;3.97;;
10333;SDS011;5212;47.892;16.406;2023-06-14T07:02:51;4.70;;;4.30;;
10333;SDS011;5212;47.892;16.406;2023-06-14T07:05:20;5.80;;;4.40;;
10333;SDS011;5212;47.892;16.406;2023-06-14T07:07:46;5.10;;;4.60;;
10333;SDS011;5212;47.892;16.406;2023-06-14T07:10:12;5.60;;;5.07;;
10333;SDS011;5212;47.892;16.406;2023-06-14T07:12:38;6.63;;;6.03;;
10333;SDS011;5212;47.892;16.406;2023-06-14T07:15:05;6.57;;;4.57;;
10333;SDS011;5212;47.892;16.406;2023-06-14T07:17:33;4.80;;;4.40;;
10333;SDS011;5212;47.892;16.406;2023-06-14T07:19:59;4.33;;;3.93;;
10333;SDS011;5212;47.892;16.406;2023-06-14T07:22:37;4.60;;;4.20;;
10333;SDS011;5212;47.892;16.406;2023-06-14T07:25:06;5.20;;;4.33;;
10333;SDS011;5212;47.892;16.406;2023-06-14T07:27:33;4.67;;;4.20;;
10333;SDS011;5212;47.892;16.406;2023-06-14T07:29:59;4.40;;;4.00;;
10333;SDS011;5212;47.892;16.406;2023-06-14T07:32:25;4.20;;;3.80;;
10333;SDS011;5212;47.892;16.406;2023-06-14T07:34:51;4.50;;;3.87;;
10333;SDS011;5212;47.892;16.406;2023-06-14T07:37:17;4.23;;;3.73;;
10333;SDS011;5212;47.892;16.406;2023-06-14T07:39:43;4.60;;;3.80;;
10333;SDS011;5212;47.892;16.406;2023-06-14T07:42:09;3.73;;;3.33;;
10333;SDS011;5212;47.892;16.406;2023-06-14T07:44:36;3.70;;;3.30;;
10333;SDS011;5212;47.892;16.406;2023-06-14T07:47:02;3.73;;;3.37;;
10333;SDS011;5212;47.892;16.406;2023-06-14T07:49:28;3.97;;;3.60;;
10333;SDS011;5212;47.892;16.406;2023-06-14T07:51:54;6.67;;;3.87;;
10333;SDS011;5212;47.892;16.406;2023-06-14T07:54:20;3.87;;;3.47;;
10333;SDS011;5212;47.892;16.406;2023-06-14T07:56:50;4.10;;;3.50;;
10333;SDS011;5212;47.892;16.406;2023-06-14T07:59:16;3.63;;;3.33;;
10333;SDS011;5212;47.892;16.406;2023-06-14T08:01:42;4.87;;;3.60;;
10333;SDS011;5212;47.892;16.406;2023-06-14T08:04:12;4.80;;;3.40;;
10333;SDS011;5212;47.892;16.406;2023-06-14T08:06:39;3.80;;;3.40;;
10333;SDS011;5212;47.892;16.406;2023-06-14T08:09:05;4.63;;;3.97;;
10333;SDS011;5212;47.892;16.406;2023-06-14T08:11:31;4.67;;;4.23;;
10333;SDS011;5212;47.892;16.406;2023-06-14T08:13:58;3.80;;;3.50;;
10333;SDS011;5212;47.892;16.406;2023-06-14T08:16:23;4.23;;;3.80;;
10333;SDS011;5212;47.892;16.406;2023-06-14T08:18:49;5.63;;;3.60;;
10333;SDS011;5212;47.892;16.406;2023-06-14T08:21:15;4.00;;;3.60;;
10333;SDS011;5212;47.892;16.406;2023-06-14T08:23:41;4.00;;;3.60;;
10333;SDS011;5212;47.892;16.406;2023-06-14T08:26:08;4.03;;;3.67;;
10333;SDS011;5212;47.892;16.406;2023-06-14T08:28:34;3.60;;;3.30;;
10333;SDS011;5212;47.892;16.406;2023-06-14T08:31:01;3.73;;;3.30;;
10333;SDS011;5212;47.892;16.406;2023-06-14T08:33:27;3.60;;;2.83;;
10333;SDS011;5212;47.892;16.406;2023-06-14T08:35:53;4.10;;;3.00;;
10333;SDS011;5212;47.892;16.406;2023-06-14T08:38:19;2.93;;;2.67;;
10333;SDS011;5212;47.892;16.406;2023-06-14T08:40:46;3.47;;;2.90;;
10333;SDS011;5212;47.892;16.406;2023-06-14T08:43:13;3.00;;;2.70;;
10333;SDS011;5212;47.892;16.406;2023-06-14T08:45:40;2.90;;;2.60;;
10333;SDS011;5212;47.892;16.406;2023-06-14T08:48:07;4.43;;;3.90;;
10333;SDS011;5212;47.892;16.406;2023-06-14T08:50:34;3.60;;;3.30;;
10333;SDS011;5212;47.892;16.406;2023-06-14T08:53:02;4.23;;;3.83;;
10333;SDS011;5212;47.892;16.406;2023-06-14T08:55:29;3.90;;;3.43;;
10333;SDS011;5212;47.892;16.406;2023-06-14T08:57:56;4.70;;;2.80;;
10333;SDS011;5212;47.892;16.406;2023-06-14T09:00:23;4.83;;;3.23;;
10333;SDS011;5212;47.892;16.406;2023-06-14T09:02:49;3.40;;;3.00;;
10333;SDS011;5212;47.892;16.406;2023-06-14T09:05:23;4.43;;;3.30;;
10333;SDS011;5212;47.892;16.406;2023-06-14T09:07:49;5.30;;;3.50;;
10333;SDS011;5212;47.892;16.406;2023-06-14T09:10:16;3.30;;;3.00;;
10333;SDS011;5212;47.892;16.406;2023-06-14T09:12:42;4.17;;;3.60;;
10333;SDS011;5212;47.892;16.406;2023-06-14T09:15:09;4.00;;;3.47;;
10333;SDS011;5212;47.892;16.406;2023-06-14T09:17:35;3.67;;;3.27;;
10333;SDS011;5212;47.892;16.406;2023-06-14T09:20:02;4.17;;;3.23;;
10333;SDS011;5212;47.892;16.406;2023-06-14T09:22:31;3.53;;;2.93;;
10333;SDS011;5212;47.892;16.406;2023-06-14T09:24:58;3.87;;;2.90;;
10333;SDS011;5212;47.892;16.406;2023-06-14T09:27:25;3.13;;;2.80;;
10333;SDS011;5212;47.892;16.406;2023-06-14T09:29:51;2.70;;;2.50;;
10333;SDS011;5212;47.892;16.406;2023-06-14T09:32:17;3.00;;;2.77;;
10333;SDS011;5212;47.892;16.406;2023-06-14T09:34:43;3.40;;;3.10;;
10333;SDS011;5212;47.892;16.406;2023-06-14T09:37:10;3.77;;;2.90;;
10333;SDS011;5212;47.892;16.406;2023-06-14T09:39:43;3.33;;;2.97;;
10333;SDS011;5212;47.892;16.406;2023-06-14T09:42:16;3.10;;;2.77;;
10333;SDS011;5212;47.892;16.406;2023-06-14T09:44:43;3.23;;;2.90;;
10333;SDS011;5212;47.892;16.406;2023-06-14T09:47:10;3.10;;;2.80;;
10333;SDS011;5212;47.892;16.406;2023-06-14T09:49:36;3.13;;;2.80;;
10333;SDS011;5212;47.892;16.406;2023-06-14T09:52:02;3.13;;;2.90;;
10333;SDS011;5212;47.892;16.406;2023-06-14T09:54:29;3.07;;;2.80;;
10333;SDS011;5212;47.892;16.406;2023-06-14T09:56:56;4.67;;;2.97;;
10333;SDS011;5212;47.892;16.406;2023-06-14T09:59:25;3.90;;;3.17;;
10333;SDS011;5212;47.892;16.406;2023-06-14T10:01:54;3.27;;;2.70;;
10333;SDS011;5212;47.892;16.406;2023-06-14T10:04:23;3.63;;;2.60;;
10333;SDS011;5212;47.892;16.406;2023-06-14T10:06:50;3.00;;;2.63;;
10333;SDS011;5212;47.892;16.406;2023-06-14T10:09:16;3.10;;;2.73;;
10333;SDS011;5212;47.892;16.406;2023-06-14T10:11:42;3.37;;;2.63;;
10333;SDS011;5212;47.892;16.406;2023-06-14T10:14:09;2.70;;;2.30;;
10333;SDS011;5212;47.892;16.406;2023-06-14T10:16:37;2.70;;;2.50;;
10333;SDS011;5212;47.892;16.406;2023-06-14T10:19:08;2.67;;;2.47;;
10333;SDS011;5212;47.892;16.406;2023-06-14T10:21:37;3.80;;;2.50;;
10333;SDS011;5212;47.892;16.406;2023-06-14T10:24:14;3.83;;;2.43;;
10333;SDS011;5212;47.892;16.406;2023-06-14T10:26:49;2.63;;;2.40;;
10333;SDS011;5212;47.892;16.406;2023-06-14T10:29:16;2.80;;;2.60;;
10333;SDS011;5212;47.892;16.406;2023-06-14T10:31:43;2.60;;;2.40;;
10333;SDS011;5212;47.892;16.406;2023-06-14T10:34:10;2.43;;;2.23;;
10333;SDS011;5212;47.892;16.406;2023-06-14T10:36:37;4.70;;;2.57;;
10333;SDS011;5212;47.892;16.406;2023-06-14T10:39:04;3.33;;;2.50;;
10333;SDS011;5212;47.892;16.406;2023-06-14T10:41:32;3.90;;;2.40;;
10333;SDS011;5212;47.892;16.406;2023-06-14T10:47:00;3.00;;;2.20;;
10333;SDS011;5212;47.892;16.406;2023-06-14T10:52:11;2.80;;;2.33;;
10333;SDS011;5212;47.892;16.406;2023-06-14T10:57:29;2.73;;;2.40;;
10333;SDS011;5212;47.892;16.406;2023-06-14T10:59:57;2.40;;;2.20;;
10333;SDS011;5212;47.892;16.406;2023-06-14T11:05:40;2.37;;;2.17;;
10333;SDS011;5212;47.892;16.406;2023-06-14T11:08:17;2.60;;;2.30;;
10333;SDS011;5212;47.892;16.406;2023-06-14T11:11:08;3.53;;;2.27;;
10333;SDS011;5212;47.892;16.406;2023-06-14T11:13:36;2.73;;;2.30;;
10333;SDS011;5212;47.892;16.406;2023-06-14T11:16:04;2.40;;;2.20;;
10333;SDS011;5212;47.892;16.406;2023-06-14T11:18:36;2.50;;;2.30;;
10333;SDS011;5212;47.892;16.406;2023-06-14T11:21:02;2.60;;;2.40;;
10333;SDS011;5212;47.892;16.406;2023-06-14T11:23:28;2.53;;;2.33;;
10333;SDS011;5212;47.892;16.406;2023-06-14T11:25:55;2.20;;;2.00;;
10333;SDS011;5212;47.892;16.406;2023-06-14T11:28:21;3.33;;;2.20;;
10333;SDS011;5212;47.892;16.406;2023-06-14T11:30:48;3.40;;;2.20;;
10333;SDS011;5212;47.892;16.406;2023-06-14T11:33:17;2.50;;;2.30;;
10333;SDS011;5212;47.892;16.406;2023-06-14T11:35:43;2.77;;;2.50;;
10333;SDS011;5212;47.892;16.406;2023-06-14T11:38:10;2.57;;;2.37;;
10333;SDS011;5212;47.892;16.406;2023-06-14T11:40:37;3.67;;;2.70;;
10333;SDS011;5212;47.892;16.406;2023-06-14T11:43:03;2.73;;;2.30;;
10333;SDS011;5212;47.892;16.406;2023-06-14T11:45:29;2.60;;;2.40;;
10333;SDS011;5212;47.892;16.406;2023-06-14T11:47:56;3.33;;;2.50;;
10333;SDS011;5212;47.892;16.406;2023-06-14T11:50:24;2.37;;;2.17;;
10333;SDS011;5212;47.892;16.406;2023-06-14T11:52:54;2.93;;;2.63;;
10333;SDS011;5212;47.892;16.406;2023-06-14T11:55:20;2.50;;;2.30;;
10333;SDS011;5212;47.892;16.406;2023-06-14T11:57:47;2.60;;;2.40;;
10333;SDS011;5212;47.892;16.406;2023-06-14T12:00:13;2.40;;;2.20;;
10333;SDS011;5212;47.892;16.406;2023-06-14T12:02:40;2.87;;;2.67;;
10333;SDS011;5212;47.892;16.406;2023-06-14T12:05:07;2.40;;;2.20;;
10333;SDS011;5212;47.892;16.406;2023-06-14T12:07:35;3.27;;;2.47;;
10333;SDS011;5212;47.892;16.406;2023-06-14T12:10:05;3.87;;;2.53;;
10333;SDS011;5212;47.892;16.406;2023-06-14T12:12:34;3.33;;;2.40;;
10333;SDS011;5212;47.892;16.406;2023-06-14T12:15:02;2.30;;;2.10;;
10333;SDS011;5212;47.892;16.406;2023-06-14T12:17:31;2.90;;;2.50;;
10333;SDS011;5212;47.892;16.406;2023-06-14T12:19:57;2.50;;;2.30;;
10333;SDS011;5212;47.892;16.406;2023-06-14T12:22:23;2.60;;;2.40;;
10333;SDS011;5212;47.892;16.406;2023-06-14T12:24:50;4.43;;;2.63;;
10333;SDS011;5212;47.892;16.406;2023-06-14T12:27:18;2.60;;;2.40;;
10333;SDS011;5212;47.892;16.406;2023-06-14T12:29:58;3.90;;;2.50;;
10333;SDS011;5212;47.892;16.406;2023-06-14T12:32:24;3.03;;;2.30;;
10333;SDS011;5212;47.892;16.406;2023-06-14T12:34:50;2.83;;;2.40;;
10333;SDS011;5212;47.892;16.406;2023-06-14T12:37:16;2.70;;;2.50;;
10333;SDS011;5212;47.892;16.406;2023-06-14T12:39:42;2.90;;;2.60;;
10333;SDS011;5212;47.892;16.406;2023-06-14T12:42:09;2.47;;;2.27;;
10333;SDS011;5212;47.892;16.406;2023-06-14T12:44:35;2.40;;;2.20;;
10333;SDS011;5212;47.892;16.406;2023-06-14T12:47:06;2.20;;;2.00;;
10333;SDS011;5212;47.892;16.406;2023-06-14T12:49:32;2.27;;;2.07;;
10333;SDS011;5212;47.892;16.406;2023-06-14T12:51:58;2.37;;;2.17;;
10333;SDS011;5212;47.892;16.406;2023-06-14T12:54:24;3.37;;;2.10;;
10333;SDS011;5212;47.892;16.406;2023-06-14T12:56:50;2.77;;;2.23;;
10333;SDS011;5212;47.892;16.406;2023-06-14T12:59:17;2.30;;;2.10;;
10333;SDS011;5212;47.892;16.406;2023-06-14T13:01:43;2.10;;;2.00;;
10333;SDS011;5212;47.892;16.406;2023-06-14T13:04:10;2.10;;;1.90;;
10333;SDS011;5212;47.892;16.406;2023-06-14T13:06:36;2.63;;;2.07;;
10333;SDS011;5212;47.892;16.406;2023-06-14T13:09:03;2.50;;;2.30;;
10333;SDS011;5212;47.892;16.406;2023-06-14T13:11:29;2.30;;;2.10;;
10333;SDS011;5212;47.892;16.406;2023-06-14T13:13:55;2.40;;;2.20;;
10333;SDS011;5212;47.892;16.406;2023-06-14T13:16:22;2.87;;;2.37;;
10333;SDS011;5212;47.892;16.406;2023-06-14T13:18:48;2.47;;;2.10;;
10333;SDS011;5212;47.892;16.406;2023-06-14T13:21:14;2.60;;;2.40;;
10333;SDS011;5212;47.892;16.406;2023-06-14T13:23:40;2.87;;;2.57;;
10333;SDS011;5212;47.892;16.406;2023-06-14T13:26:06;2.27;;;2.07;;
10333;SDS011;5212;47.892;16.406;2023-06-14T13:28:32;2.63;;;2.43;;
10333;SDS011;5212;47.892;16.406;2023-06-14T13:31:00;2.60;;;2.40;;
10333;SDS011;5212;47.892;16.406;2023-06-14T13:33:27;2.77;;;2.57;;
10333;SDS011;5212;47.892;16.406;2023-06-14T13:35:53;2.60;;;2.40;;
10333;SDS011;5212;47.892;16.406;2023-06-14T13:38:19;2.67;;;2.47;;
10333;SDS011;5212;47.892;16.406;2023-06-14T13:40:45;2.73;;;2.33;;
10333;SDS011;5212;47.892;16.406;2023-06-14T13:43:11;2.60;;;2.40;;
10333;SDS011;5212;47.892;16.406;2023-06-14T13:45:37;2.60;;;2.40;;
10333;SDS011;5212;47.892;16.406;2023-06-14T13:48:03;5.57;;;2.57;;
10333;SDS011;5212;47.892;16.406;2023-06-14T13:50:30;3.23;;;2.17;;
10333;SDS011;5212;47.892;16.406;2023-06-14T13:52:56;2.30;;;2.10;;
10333;SDS011;5212;47.892;16.406;2023-06-14T13:55:22;3.37;;;2.70;;
10333;SDS011;5212;47.892;16.406;2023-06-14T13:57:48;2.70;;;2.50;;
10333;SDS011;5212;47.892;16.406;2023-06-14T14:00:14;2.80;;;2.40;;
10333;SDS011;5212;47.892;16.406;2023-06-14T14:02:41;2.83;;;2.60;;
10333;SDS011;5212;47.892;16.406;2023-06-14T14:05:08;2.80;;;2.57;;
10333;SDS011;5212;47.892;16.406;2023-06-14T14:07:35;2.73;;;2.40;;
10333;SDS011;5212;47.892;16.406;2023-06-14T14:10:01;2.80;;;2.53;;
10333;SDS011;5212;47.892;16.406;2023-06-14T14:12:27;4.63;;;2.30;;
10333;SDS011;5212;47.892;16.406;2023-06-14T14:14:53;2.00;;;1.80;;
10333;SDS011;5212;47.892;16.406;2023-06-14T14:17:20;2.40;;;2.20;;
10333;SDS011;5212;47.892;16.406;2023-06-14T14:19:46;2.00;;;1.80;;
10333;SDS011;5212;47.892;16.406;2023-06-14T14:22:12;2.80;;;2.30;;
10333;SDS011;5212;47.892;16.406;2023-06-14T14:24:38;3.13;;;2.50;;
10333;SDS011;5212;47.892;16.406;2023-06-14T14:27:05;2.50;;;2.30;;
10333;SDS011;5212;47.892;16.406;2023-06-14T14:29:31;2.30;;;2.10;;
10333;SDS011;5212;47.892;16.406;2023-06-14T14:31:57;2.73;;;2.50;;
10333;SDS011;5212;47.892;16.406;2023-06-14T14:34:24;2.63;;;2.43;;
10333;SDS011;5212;47.892;16.406;2023-06-14T14:36:50;2.40;;;2.20;;
10333;SDS011;5212;47.892;16.406;2023-06-14T14:39:16;2.37;;;2.17;;
10333;SDS011;5212;47.892;16.406;2023-06-14T14:41:42;2.40;;;2.20;;
10333;SDS011;5212;47.892;16.406;2023-06-14T14:44:08;2.30;;;2.07;;
10333;SDS011;5212;47.892;16.406;2023-06-14T14:46:34;2.83;;;2.50;;
10333;SDS011;5212;47.892;16.406;2023-06-14T14:49:00;2.90;;;2.60;;
10333;SDS011;5212;47.892;16.406;2023-06-14T14:51:26;3.93;;;2.37;;
10333;SDS011;5212;47.892;16.406;2023-06-14T14:53:52;2.93;;;2.40;;
10333;SDS011;5212;47.892;16.406;2023-06-14T14:56:18;2.47;;;2.27;;
10333;SDS011;5212;47.892;16.406;2023-06-14T14:58:45;3.67;;;2.50;;